Time;durP1;ratioP1;P1;durP2;ratioP2;P2;SDS_P1;SDS_P2;PMS_P1;PMS_P2;Temp;Humidity;BMP_temperature;BMP_pressure;BME280_temperature;BME280_humidity;BME280_pressure;Samples;Min_cycle;Max_cycle;Signal;HPM_P1;HPM_P2
2021/09/03 00:00:13;;;;;;;39.67;24.17;;;12.40;99.90;;;;;;6098356;23;20073;-71
2021/09/03 00:02:39;;;;;;;38.75;23.77;;;12.40;99.90;;;;;;6122665;23;20366;-71
2021/09/03 00:05:08;;;;;;;38.40;22.13;;;12.40;99.90;;;;;;6092335;23;20028;-71
2021/09/03 00:07:35;;;;;;;38.58;23.52;;;12.40;99.90;;;;;;6116298;23;20403;-71
2021/09/03 00:10:04;;;;;;;40.97;24.52;;;12.30;99.90;;;;;;6068966;23;20025;-71
2021/09/03 00:12:29;;;;;;;39.00;24.05;;;12.30;99.90;;;;;;6068457;23;20522;-71
2021/09/03 00:14:55;;;;;;;41.17;25.88;;;12.30;99.90;;;;;;6066956;23;20025;-71
2021/09/03 00:17:21;;;;;;;39.90;24.08;;;12.30;99.90;;;;;;6068627;23;20029;-71
2021/09/03 00:19:47;;;;;;;41.15;25.65;;;12.30;99.90;;;;;;6069980;23;20021;-71
2021/09/03 00:22:13;;;;;;;43.00;26.35;;;12.40;99.90;;;;;;6092307;23;20025;-72
2021/09/03 00:24:46;;;;;;;42.30;27.52;;;12.30;99.90;;;;;;6113110;23;20466;-72
2021/09/03 00:27:12;;;;;;;41.88;26.15;;;12.30;99.90;;;;;;6068016;23;20025;-72
2021/09/03 00:29:37;;;;;;;43.58;25.83;;;12.30;99.90;;;;;;6115640;23;20049;-72
2021/09/03 00:32:06;;;;;;;43.35;26.77;;;12.30;99.90;;;;;;6088692;23;20025;-72
2021/09/03 00:34:32;;;;;;;44.53;25.75;;;12.30;99.90;;;;;;6068010;23;20036;-72
2021/09/03 00:36:59;;;;;;;44.50;25.50;;;12.30;99.90;;;;;;6092450;23;20440;-72
2021/09/03 00:39:25;;;;;;;40.00;23.95;;;12.30;99.90;;;;;;6117205;23;20029;-72
2021/09/03 00:41:51;;;;;;;42.90;25.50;;;12.20;99.90;;;;;;6088179;23;20025;-72
2021/09/03 00:44:17;;;;;;;50.47;28.10;;;12.20;99.90;;;;;;6092462;23;20100;-72
2021/09/03 00:46:42;;;;;;;37.42;23.55;;;12.20;99.90;;;;;;6091754;23;20033;-72
2021/09/03 00:49:08;;;;;;;37.15;24.35;;;12.20;99.90;;;;;;6091891;23;20029;-71
2021/09/03 00:51:38;;;;;;;42.58;25.98;;;12.20;99.90;;;;;;6117011;23;20030;-72
2021/09/03 00:54:04;;;;;;;;;;;12.10;99.90;;;;;;6115978;23;20029;-72
2021/09/03 00:56:31;;;;;;;38.20;24.73;;;12.10;99.90;;;;;;6089877;23;19916;-71
2021/09/03 00:58:57;;;;;;;38.35;23.63;;;12.10;99.90;;;;;;6068175;23;20022;-71
2021/09/03 01:01:23;;;;;;;50.00;25.50;;;12.00;99.90;;;;;;6068660;23;20872;-71
2021/09/03 01:03:49;;;;;;;48.65;26.90;;;12.00;99.90;;;;;;6090283;23;20037;-71
2021/09/03 01:06:16;;;;;;;39.10;24.70;;;12.00;99.90;;;;;;6115229;23;20030;-71
2021/09/03 01:08:42;;;;;;;37.95;24.77;;;11.90;99.90;;;;;;6115486;23;20052;-71
2021/09/03 01:11:08;;;;;;;37.47;24.27;;;11.90;99.90;;;;;;6091789;23;20316;-72
2021/09/03 01:13:34;;;;;;;51.67;27.67;;;11.90;99.90;;;;;;6116798;23;20534;-72
2021/09/03 01:16:00;;;;;;;39.33;24.02;;;11.90;99.90;;;;;;6090523;23;20029;-72
2021/09/03 01:18:26;;;;;;;35.17;23.95;;;11.90;99.90;;;;;;6117299;23;20018;-71
2021/09/03 01:20:51;;;;;;;41.08;25.05;;;11.90;99.90;;;;;;6066494;23;20044;-70
2021/09/03 01:23:18;;;;;;;40.20;24.25;;;11.90;99.90;;;;;;6116726;23;20054;-71
2021/09/03 01:25:44;;;;;;;41.42;24.95;;;11.90;99.90;;;;;;6090948;23;20018;-72
2021/09/03 01:28:10;;;;;;;42.55;25.77;;;11.80;99.90;;;;;;6108485;23;20451;-71
2021/09/03 01:30:36;;;;;;;36.95;22.92;;;11.80;99.90;;;;;;6109545;23;20022;-70
2021/09/03 01:33:01;;;;;;;41.28;24.00;;;11.70;99.90;;;;;;6083126;23;20096;-70
2021/09/03 01:35:27;;;;;;;40.13;24.55;;;11.60;99.90;;;;;;6082685;23;20026;-71
2021/09/03 01:37:53;;;;;;;40.15;22.90;;;11.60;99.90;;;;;;6107501;23;20022;-71
2021/09/03 01:40:19;;;;;;;34.72;22.13;;;11.50;99.90;;;;;;6036341;23;20025;-71
2021/09/03 01:42:45;;;;;;;33.75;21.65;;;11.50;99.90;;;;;;6062526;23;20084;-71
2021/09/03 01:45:11;;;;;;;37.53;23.88;;;11.40;99.90;;;;;;6116024;23;20029;-71
2021/09/03 01:47:37;;;;;;;34.83;22.90;;;11.40;99.90;;;;;;6115331;23;20028;-72
2021/09/03 01:50:04;;;;;;;34.47;21.77;;;11.40;99.90;;;;;;6092732;23;20097;-71
2021/09/03 01:52:30;;;;;;;34.47;22.25;;;11.40;99.90;;;;;;6067361;23;20029;-71
2021/09/03 01:54:55;;;;;;;33.28;20.85;;;11.40;99.90;;;;;;6093037;23;20026;-71
2021/09/03 01:57:21;;;;;;;47.92;23.77;;;11.40;99.90;;;;;;6116288;23;20022;-71
2021/09/03 01:59:47;;;;;;;49.33;25.02;;;11.30;99.90;;;;;;6092699;23;20022;-71
2021/09/03 02:02:15;;;;;;;44.75;23.63;;;11.30;99.90;;;;;;6092290;23;20018;-71
2021/09/03 02:04:41;;;;;;;41.78;23.85;;;11.20;99.90;;;;;;6091710;23;20022;-71
2021/09/03 02:07:08;;;;;;;34.40;22.08;;;11.10;99.90;;;;;;6115371;23;20304;-71
2021/09/03 02:09:36;;;;;;;36.13;22.33;;;11.10;99.90;;;;;;6092713;23;20119;-71
2021/09/03 02:12:02;;;;;;;37.13;22.63;;;11.00;99.90;;;;;;6116544;23;20055;-71
2021/09/03 02:14:28;;;;;;;40.63;22.80;;;11.10;99.90;;;;;;6092230;23;20041;-71
2021/09/03 02:16:54;;;;;;;33.65;21.05;;;11.10;99.90;;;;;;6093076;23;20030;-71
2021/09/03 02:19:20;;;;;;;26.58;17.85;;;11.10;99.90;;;;;;6116951;23;20081;-71
2021/09/03 02:21:45;;;;;;;26.63;17.73;;;11.00;99.90;;;;;;6092473;23;20032;-71
2021/09/03 02:24:11;;;;;;;26.70;17.10;;;11.00;99.90;;;;;;6093112;23;20022;-71
2021/09/03 02:26:37;;;;;;;29.05;18.00;;;10.90;99.90;;;;;;6067873;23;20057;-71
2021/09/03 02:29:06;;;;;;;28.83;17.90;;;10.90;99.90;;;;;;6092837;23;20439;-71
2021/09/03 02:31:31;;;;;;;29.00;17.55;;;10.90;99.90;;;;;;6091969;23;20026;-71
2021/09/03 02:33:57;;;;;;;33.03;20.02;;;10.90;99.90;;;;;;6117949;23;20025;-71
2021/09/03 02:36:23;;;;;;;27.67;19.80;;;10.80;99.90;;;;;;6095465;23;20768;-71
2021/09/03 02:38:49;;;;;;;31.77;20.77;;;10.80;99.90;;;;;;6117551;23;20040;-71
2021/09/03 02:41:14;;;;;;;30.85;19.50;;;10.70;99.90;;;;;;6116763;23;20502;-71
2021/09/03 02:43:40;;;;;;;31.77;19.35;;;10.70;99.90;;;;;;6119630;23;20113;-71
2021/09/03 02:46:06;;;;;;;32.90;20.25;;;10.70;99.90;;;;;;6094798;23;20026;-71
2021/09/03 02:48:32;;;;;;;28.10;18.38;;;10.70;99.90;;;;;;6045123;23;20459;-71
2021/09/03 02:50:58;;;;;;;32.95;20.02;;;10.70;99.90;;;;;;6094982;23;20032;-71
2021/09/03 02:53:23;;;;;;;35.70;22.10;;;10.70;99.90;;;;;;6093597;23;20037;-71
2021/09/03 02:55:49;;;;;;;33.92;19.75;;;10.70;99.90;;;;;;6046388;23;20077;-71
2021/09/03 02:58:15;;;;;;;33.50;20.27;;;10.70;99.90;;;;;;6118552;23;20022;-71
2021/09/03 03:00:41;;;;;;;39.15;22.67;;;10.70;99.90;;;;;;6117003;23;20022;-71
2021/09/03 03:03:08;;;;;;;66.72;24.00;;;10.70;99.90;;;;;;6092812;23;20014;-71
2021/09/03 03:05:36;;;;;;;30.88;19.38;;;10.60;99.90;;;;;;6093536;23;20335;-72
2021/09/03 03:08:02;;;;;;;29.23;19.40;;;10.50;99.90;;;;;;6068510;23;20040;-71
2021/09/03 03:10:28;;;;;;;34.05;21.17;;;10.50;99.90;;;;;;6069098;23;20121;-71
2021/09/03 03:12:54;;;;;;;30.30;19.60;;;10.50;99.90;;;;;;6043911;23;20033;-71
2021/09/03 03:15:29;;;;;;;39.20;21.75;;;10.50;99.90;;;;;;6093377;23;20477;-71
2021/09/03 03:17:55;;;;;;;41.97;23.08;;;10.50;99.90;;;;;;6068634;23;20239;-71
2021/09/03 03:20:22;;;;;;;29.33;18.85;;;10.50;99.90;;;;;;6068606;23;20462;-71
2021/09/03 03:22:48;;;;;;;32.42;19.70;;;10.50;99.90;;;;;;6090591;23;20508;-71
2021/09/03 03:25:14;;;;;;;32.65;20.20;;;10.50;99.90;;;;;;6093185;23;20036;-72
2021/09/03 03:27:40;;;;;;;29.98;19.70;;;10.40;99.90;;;;;;6114390;23;20422;-71
2021/09/03 03:30:06;;;;;;;29.33;19.42;;;10.50;99.90;;;;;;6095040;23;20018;-71
2021/09/03 03:32:32;;;;;;;29.77;19.55;;;10.40;99.90;;;;;;6091586;23;20321;-71
2021/09/03 03:34:58;;;;;;;31.27;19.55;;;10.50;99.90;;;;;;6070736;23;20026;-71
2021/09/03 03:37:24;;;;;;;36.17;21.58;;;10.50;99.90;;;;;;6094703;23;20026;-71
2021/09/03 03:39:49;;;;;;;32.47;20.85;;;10.40;99.90;;;;;;6117647;23;20363;-71
2021/09/03 03:42:15;;;;;;;27.00;17.80;;;10.40;99.90;;;;;;6095071;23;20026;-71
2021/09/03 03:44:43;;;;;;;29.95;18.60;;;10.40;99.90;;;;;;6091587;23;20029;-71
2021/09/03 03:47:09;;;;;;;31.42;20.40;;;10.30;99.90;;;;;;6095689;23;20033;-71
2021/09/03 03:49:34;;;;;;;32.03;20.13;;;10.30;99.90;;;;;;6093412;23;20022;-71
2021/09/03 03:52:00;;;;;;;32.42;20.98;;;10.20;99.90;;;;;;6044870;23;20040;-71
2021/09/03 03:54:26;;;;;;;30.15;19.27;;;10.20;99.90;;;;;;6069209;23;20399;-71
2021/09/03 03:56:52;;;;;;;30.50;19.45;;;10.20;99.90;;;;;;6070464;23;20049;-71
2021/09/03 03:59:17;;;;;;;29.25;19.05;;;10.20;99.90;;;;;;6093469;23;20030;-71
2021/09/03 04:01:43;;;;;;;32.67;20.98;;;10.20;99.90;;;;;;6114781;23;20033;-71
2021/09/03 04:04:09;;;;;;;30.23;19.05;;;10.20;99.90;;;;;;6068010;23;20025;-71
2021/09/03 04:06:35;;;;;;;29.98;19.25;;;10.20;99.90;;;;;;6090221;23;20024;-71
2021/09/03 04:09:00;;;;;;;30.80;19.85;;;10.20;99.90;;;;;;6069714;23;20109;-71
2021/09/03 04:11:35;;;;;;;28.52;18.90;;;10.20;99.90;;;;;;6069905;23;20026;-71
2021/09/03 04:14:01;;;;;;;33.67;20.15;;;10.20;99.90;;;;;;6094133;23;20268;-71
2021/09/03 04:16:26;;;;;;;26.15;16.98;;;10.20;99.90;;;;;;6092720;23;20064;-71
2021/09/03 04:18:52;;;;;;;33.10;19.77;;;10.20;99.90;;;;;;6092177;23;20022;-71
2021/09/03 04:21:18;;;;;;;28.08;18.85;;;10.20;99.90;;;;;;6116269;23;20462;-71
2021/09/03 04:23:44;;;;;;;25.00;16.48;;;10.20;99.90;;;;;;6067253;23;20022;-71
2021/09/03 04:26:09;;;;;;;26.70;17.13;;;10.20;99.90;;;;;;6094094;23;20022;-71
2021/09/03 04:28:38;;;;;;;30.75;18.77;;;10.20;99.90;;;;;;6068333;23;20022;-71
2021/09/03 04:31:04;;;;;;;31.85;18.77;;;10.20;99.90;;;;;;6069660;23;20018;-71
2021/09/03 04:33:29;;;;;;;31.00;19.10;;;10.20;99.90;;;;;;6091221;23;20026;-71
2021/09/03 04:35:55;;;;;;;30.70;18.90;;;10.10;99.90;;;;;;6093127;23;20110;-71
2021/09/03 04:38:22;;;;;;;31.75;19.15;;;10.10;99.90;;;;;;6090551;23;20065;-71
2021/09/03 04:40:47;;;;;;;35.13;19.60;;;10.10;99.90;;;;;;6092897;23;20077;-71
2021/09/03 04:43:13;;;;;;;31.02;19.50;;;10.00;99.90;;;;;;6094185;23;20018;-71
2021/09/03 04:45:39;;;;;;;33.95;19.17;;;10.00;99.90;;;;;;6068514;23;20030;-71
2021/09/03 04:48:05;;;;;;;32.30;17.58;;;10.00;99.90;;;;;;6115316;23;20018;-71
2021/09/03 04:50:31;;;;;;;27.58;16.95;;;9.90;99.90;;;;;;6047045;23;20022;-71
2021/09/03 04:52:57;;;;;;;26.33;16.50;;;9.90;99.90;;;;;;6115041;23;20030;-72
2021/09/03 04:55:22;;;;;;;25.77;17.05;;;9.90;99.90;;;;;;6090001;23;20125;-71
2021/09/03 04:57:48;;;;;;;33.78;18.35;;;9.90;99.90;;;;;;6117675;23;20029;-72
2021/09/03 05:00:17;;;;;;;27.80;16.15;;;9.90;99.90;;;;;;6117223;23;20018;-71
2021/09/03 05:02:43;;;;;;;30.85;17.05;;;9.90;99.90;;;;;;6092461;23;20117;-72
2021/09/03 05:05:10;;;;;;;26.20;15.70;;;9.90;99.90;;;;;;6116674;23;20093;-71
2021/09/03 05:07:36;;;;;;;25.27;15.88;;;9.80;99.90;;;;;;6070717;23;20076;-72
2021/09/03 05:10:04;;;;;;;26.55;15.27;;;9.90;99.90;;;;;;6091990;23;20527;-72
2021/09/03 05:12:30;;;;;;;22.45;15.63;;;9.90;99.90;;;;;;6118088;23;20026;-71
2021/09/03 05:14:56;;;;;;;25.27;17.08;;;9.90;99.90;;;;;;6067067;23;20120;-72
2021/09/03 05:17:22;;;;;;;26.33;16.25;;;10.00;99.90;;;;;;6093799;23;20577;-72
2021/09/03 05:19:48;;;;;;;27.10;15.88;;;10.00;99.90;;;;;;6117257;23;20551;-72
2021/09/03 05:22:14;;;;;;;27.20;16.90;;;10.10;99.90;;;;;;6093004;23;20024;-71
2021/09/03 05:24:39;;;;;;;26.38;15.68;;;10.10;99.90;;;;;;6045434;23;20025;-72
2021/09/03 05:27:05;;;;;;;28.25;16.42;;;10.10;99.90;;;;;;6114184;23;20104;-72
2021/09/03 05:29:31;;;;;;;24.95;16.48;;;10.10;99.90;;;;;;6092659;23;20062;-71
2021/09/03 05:31:57;;;;;;;24.15;15.25;;;10.20;99.90;;;;;;6091343;23;20033;-72
2021/09/03 05:34:23;;;;;;;37.20;19.20;;;10.20;99.90;;;;;;6090278;23;20022;-71
2021/09/03 05:36:48;;;;;;;28.08;16.67;;;10.20;99.90;;;;;;6090933;23;20030;-72
2021/09/03 05:39:20;;;;;;;27.48;16.65;;;10.30;99.90;;;;;;6090636;23;20403;-72
2021/09/03 05:41:46;;;;;;;24.77;15.77;;;10.30;99.90;;;;;;6091542;23;20022;-71
2021/09/03 05:44:12;;;;;;;33.72;18.92;;;10.30;99.90;;;;;;6066579;23;20018;-71
2021/09/03 05:46:38;;;;;;;47.42;21.38;;;10.40;99.90;;;;;;6114815;23;20030;-72
2021/09/03 05:49:09;;;;;;;42.05;21.33;;;10.40;99.90;;;;;;6090233;23;20018;-71
2021/09/03 05:51:35;;;;;;;44.72;21.10;;;10.40;99.90;;;;;;6067150;23;20032;-72
2021/09/03 05:54:07;;;;;;;34.10;18.33;;;10.50;99.90;;;;;;6066096;23;20018;-72
2021/09/03 05:56:39;;;;;;;30.92;18.00;;;10.40;99.90;;;;;;6091460;23;20025;-72
2021/09/03 05:59:05;;;;;;;29.88;17.77;;;10.50;99.90;;;;;;6090875;23;20072;-72
2021/09/03 06:01:31;;;;;;;29.60;17.60;;;10.60;99.90;;;;;;6091537;23;20026;-72
2021/09/03 06:03:57;;;;;;;31.23;18.60;;;10.60;99.90;;;;;;6091402;23;20018;-72
2021/09/03 06:06:23;;;;;;;26.98;17.08;;;10.60;99.90;;;;;;6067813;23;20018;-72
2021/09/03 06:08:52;;;;;;;28.83;17.08;;;10.70;99.90;;;;;;6092101;23;20112;-72
2021/09/03 06:11:24;;;;;;;22.90;15.20;;;10.80;99.90;;;;;;6069046;23;20022;-73
2021/09/03 06:13:50;;;;;;;34.22;19.27;;;10.90;99.90;;;;;;6088823;23;20120;-72
2021/09/03 06:16:16;;;;;;;34.40;19.80;;;11.00;99.90;;;;;;6091117;23;20028;-72
2021/09/03 06:18:42;;;;;;;47.88;24.60;;;11.10;99.90;;;;;;6067463;23;20022;-72
2021/09/03 06:21:09;;;;;;;52.17;25.10;;;11.10;99.90;;;;;;6113665;23;20073;-72
2021/09/03 06:23:34;;;;;;;34.20;20.88;;;11.30;99.90;;;;;;6091975;23;20022;-73
2021/09/03 06:26:00;;;;;;;52.42;26.20;;;11.40;99.90;;;;;;6090540;23;20022;-73
2021/09/03 06:28:26;;;;;;;38.92;22.58;;;11.50;99.90;;;;;;6115614;23;20029;-72
2021/09/03 06:30:52;;;;;;;43.85;22.17;;;11.50;99.90;;;;;;6090319;23;20081;-73
2021/09/03 06:33:21;;;;;;;48.38;25.10;;;11.60;99.90;;;;;;6116483;23;20363;-73
2021/09/03 06:35:47;;;;;;;42.75;23.13;;;11.70;99.90;;;;;;6115127;23;20022;-72
2021/09/03 06:38:12;;;;;;;41.15;22.70;;;11.80;99.90;;;;;;6115868;23;20022;-72
2021/09/03 06:40:38;;;;;;;42.13;22.55;;;12.00;99.90;;;;;;6092556;23;20455;-72
2021/09/03 06:43:04;;;;;;;38.72;20.83;;;12.10;99.90;;;;;;6089215;23;20029;-73
2021/09/03 06:45:30;;;;;;;38.55;22.13;;;12.20;99.90;;;;;;6068547;23;20057;-72
2021/09/03 06:47:55;;;;;;;41.83;23.52;;;12.40;99.90;;;;;;6091072;23;20025;-72
2021/09/03 06:50:21;;;;;;;40.50;22.50;;;12.50;99.90;;;;;;6091484;23;20430;-73
2021/09/03 06:52:48;;;;;;;36.25;20.80;;;12.60;99.90;;;;;;6066686;23;20064;-73
2021/09/03 06:55:15;;;;;;;35.25;19.13;;;12.70;99.90;;;;;;6067099;23;20101;-72
2021/09/03 06:57:42;;;;;;;34.72;20.25;;;12.80;99.90;;;;;;6092319;23;20093;-73
2021/09/03 07:00:09;;;;;;;29.88;19.25;;;12.90;99.90;;;;;;6066198;23;20018;-73
2021/09/03 07:02:34;;;;;;;32.78;19.38;;;13.00;99.90;;;;;;6115895;23;20481;-73
2021/09/03 07:05:00;;;;;;;38.50;22.02;;;13.20;99.90;;;;;;6113019;23;20026;-73
2021/09/03 07:07:26;;;;;;;30.08;19.98;;;13.30;99.90;;;;;;6091287;23;20101;-73
2021/09/03 07:09:56;;;;;;;32.70;21.08;;;13.50;99.90;;;;;;6114729;23;20044;-73
2021/09/03 07:12:22;;;;;;;30.15;18.70;;;13.60;99.90;;;;;;6091206;23;20470;-73
2021/09/03 07:14:48;;;;;;;32.30;18.85;;;13.80;99.90;;;;;;6114529;23;20376;-73
2021/09/03 07:17:14;;;;;;;30.67;18.88;;;13.90;99.90;;;;;;6114450;23;20018;-73
2021/09/03 07:19:40;;;;;;;32.35;19.27;;;14.10;99.90;;;;;;6116486;23;20080;-73
2021/09/03 07:22:07;;;;;;;29.95;19.95;;;14.30;99.90;;;;;;6065876;23;20026;-74
2021/09/03 07:24:36;;;;;;;27.80;18.25;;;14.40;99.90;;;;;;6113012;23;20447;-73
2021/09/03 07:27:02;;;;;;;29.38;17.88;;;14.60;99.90;;;;;;6114990;23;20097;-73
2021/09/03 07:29:28;;;;;;;27.55;16.27;;;14.80;99.90;;;;;;6114919;23;20021;-73
2021/09/03 07:31:54;;;;;;;27.95;16.75;;;15.00;99.90;;;;;;6115195;23;20049;-74
2021/09/03 07:34:20;;;;;;;27.35;16.55;;;15.10;99.90;;;;;;6091374;23;20129;-73
2021/09/03 07:36:46;;;;;;;23.52;14.48;;;15.20;99.90;;;;;;6091953;23;20101;-73
2021/09/03 07:39:17;;;;;;;24.80;15.50;;;15.40;99.90;;;;;;6067276;23;20026;-74
2021/09/03 07:41:43;;;;;;;22.95;15.65;;;15.50;99.90;;;;;;6115660;23;20026;-74
2021/09/03 07:44:09;;;;;;;25.27;14.27;;;15.60;99.90;;;;;;6115417;23;20537;-74
2021/09/03 07:46:34;;;;;;;25.88;15.52;;;15.80;99.90;;;;;;6091610;23;20113;-74
2021/09/03 07:49:01;;;;;;;21.42;12.88;;;16.00;99.90;;;;;;6116629;23;20533;-74
2021/09/03 07:51:27;;;;;;;20.63;13.13;;;16.20;99.90;;;;;;6092684;23;20391;-74
2021/09/03 07:53:53;;;;;;;23.35;13.32;;;16.40;99.90;;;;;;6115032;23;20129;-73
2021/09/03 07:56:19;;;;;;;20.23;11.65;;;16.40;99.90;;;;;;6068925;23;20025;-74
2021/09/03 07:58:45;;;;;;;21.40;12.88;;;16.50;99.90;;;;;;6068745;23;20069;-74
2021/09/03 08:01:11;;;;;;;21.92;11.73;;;16.70;99.90;;;;;;6089833;23;20029;-74
2021/09/03 08:03:36;;;;;;;17.05;11.95;;;16.80;99.90;;;;;;6117509;23;20028;-74
2021/09/03 08:06:02;;;;;;;16.52;10.40;;;17.00;99.90;;;;;;6116029;23;20044;-73
2021/09/03 08:08:28;;;;;;;18.58;11.10;;;17.20;99.90;;;;;;6117318;23;20025;-74
2021/09/03 08:10:54;;;;;;;19.35;10.48;;;17.20;99.90;;;;;;6116243;23;20065;-74
2021/09/03 08:13:20;;;;;;;19.13;10.10;;;17.20;99.90;;;;;;6091614;23;20022;-74
2021/09/03 08:15:45;;;;;;;22.05;11.07;;;17.10;99.90;;;;;;6065331;23;20025;-73
2021/09/03 08:18:11;;;;;;;19.15;11.13;;;17.20;99.90;;;;;;6091803;23;20037;-73
2021/09/03 08:20:37;;;;;;;21.08;10.20;;;17.10;99.90;;;;;;6093448;23;20033;-72
2021/09/03 08:23:04;;;;;;;19.08;10.30;;;17.10;99.90;;;;;;6118204;23;20038;-72
2021/09/03 08:25:30;;;;;;;17.63;8.98;;;17.30;99.90;;;;;;6066203;23;20407;-73
2021/09/03 08:27:56;;;;;;;18.10;8.90;;;17.40;99.90;;;;;;6117595;23;20064;-73
2021/09/03 08:30:22;;;;;;;20.42;9.43;;;17.40;99.90;;;;;;6065357;23;20288;-73
2021/09/03 08:32:48;;;;;;;16.30;9.05;;;17.30;99.90;;;;;;6117596;23;20022;-72
2021/09/03 08:35:15;;;;;;;17.50;8.65;;;17.30;99.90;;;;;;6090358;23;20026;-73
2021/09/03 08:37:42;;;;;;;19.58;9.15;;;17.20;99.90;;;;;;6092211;23;20022;-72
2021/09/03 08:40:11;;;;;;;18.00;8.63;;;17.10;99.90;;;;;;6091695;23;20080;-73
2021/09/03 08:42:39;;;;;;;16.77;9.55;;;17.10;99.90;;;;;;6115571;23;20100;-72
2021/09/03 08:45:06;;;;;;;16.67;8.63;;;17.30;99.90;;;;;;6113630;23;20026;-73
2021/09/03 08:47:32;;;;;;;16.95;8.68;;;17.50;99.40;;;;;;6066628;23;20055;-72
2021/09/03 08:49:58;;;;;;;17.10;9.30;;;17.70;99.50;;;;;;6117201;23;20104;-72
2021/09/03 08:52:24;;;;;;;20.95;10.13;;;17.70;98.90;;;;;;6067112;23;20068;-72
2021/09/03 08:54:50;;;;;;;19.30;10.10;;;17.70;98.90;;;;;;6114721;23;20033;-72
2021/09/03 08:57:16;;;;;;;18.30;8.88;;;17.70;98.80;;;;;;6088353;23;20032;-73
2021/09/03 08:59:42;;;;;;;19.70;9.23;;;17.60;99.10;;;;;;6117035;23;20089;-72
2021/09/03 09:02:16;;;;;;;21.85;9.25;;;17.60;98.70;;;;;;6042771;23;20026;-72
2021/09/03 09:04:50;;;;;;;15.48;8.50;;;17.60;98.90;;;;;;6095030;23;20084;-72
2021/09/03 09:07:16;;;;;;;20.05;9.88;;;17.60;98.70;;;;;;6117511;23;20022;-72
2021/09/03 09:09:44;;;;;;;17.35;8.85;;;17.50;98.30;;;;;;6094902;23;20405;-72
2021/09/03 09:12:15;;;;;;;16.45;8.90;;;17.50;98.20;;;;;;6096398;23;20462;-71
2021/09/03 09:15:02;;;;;;;17.83;8.88;;;17.70;99.00;;;;;;6120361;23;20073;-72
2021/09/03 09:17:42;;;;;;;17.90;8.38;;;17.70;98.80;;;;;;6119082;23;20060;-72
2021/09/03 09:20:09;;;;;;;;;;;17.70;98.60;;;;;;6095717;23;20049;-72
2021/09/03 09:22:59;;;;;;;15.27;8.20;;;17.70;98.30;;;;;;6118357;23;19916;-72
2021/09/03 09:25:34;;;;;;;16.98;8.48;;;17.80;98.50;;;;;;6059841;23;20358;-71
2021/09/03 09:28:18;;;;;;;14.10;8.25;;;18.10;98.40;;;;;;6119419;23;20018;-70
2021/09/03 09:30:44;;;;;;;13.95;8.23;;;18.30;97.80;;;;;;6119949;23;20028;-70
2021/09/03 09:33:13;;;;;;;17.55;8.80;;;18.30;97.40;;;;;;6119593;23;20059;-71
2021/09/03 09:35:46;;;;;;;20.27;8.35;;;18.30;97.60;;;;;;6118297;23;20088;-71
2021/09/03 09:38:14;;;;;;;20.23;9.43;;;18.20;97.50;;;;;;6118947;23;20029;-70
2021/09/03 09:40:54;;;;;;;15.57;8.32;;;18.30;96.80;;;;;;6091460;23;20022;-72
2021/09/03 09:43:44;;;;;;;17.45;8.20;;;18.20;97.10;;;;;;6095589;23;20032;-71
2021/09/03 09:46:45;;;;;;;17.30;8.80;;;18.10;97.90;;;;;;6095826;23;20044;-72
2021/09/03 09:49:12;;;;;;;18.55;9.05;;;18.20;98.00;;;;;;5984687;23;20393;-71
2021/09/03 09:51:48;;;;;;;16.42;8.15;;;18.30;98.20;;;;;;6077906;23;20021;-71
2021/09/03 09:54:22;;;;;;;18.77;8.93;;;18.50;97.40;;;;;;6119414;23;20022;-72
2021/09/03 09:57:09;;;;;;;16.50;8.20;;;18.50;96.70;;;;;;6119938;23;20443;-72
2021/09/03 09:59:35;;;;;;;14.90;8.68;;;18.40;96.70;;;;;;6094620;23;20022;-71
2021/09/03 10:02:03;;;;;;;15.40;8.65;;;18.30;96.70;;;;;;6093438;23;20075;-70
2021/09/03 10:04:31;;;;;;;17.63;8.18;;;18.20;96.80;;;;;;6119997;23;20109;-71
2021/09/03 10:07:02;;;;;;;16.42;8.27;;;18.10;97.40;;;;;;6072388;23;20088;-71
2021/09/03 10:09:30;;;;;;;;;;;18.20;97.10;;;;;;6073535;23;20457;-70
2021/09/03 10:11:57;;;;;;;13.95;8.35;;;18.20;97.00;;;;;;6145470;23;20326;-71
2021/09/03 10:14:29;;;;;;;17.45;8.63;;;18.20;97.10;;;;;;6120490;23;20057;-71
2021/09/03 10:16:59;;;;;;;18.27;8.40;;;18.40;97.60;;;;;;6117942;23;20022;-71
2021/09/03 10:19:37;;;;;;;18.10;8.82;;;18.80;97.30;;;;;;6121018;23;20372;-71
2021/09/03 10:22:07;;;;;;;20.33;9.80;;;18.90;96.40;;;;;;6118064;23;20021;-71
2021/09/03 10:24:35;;;;;;;18.27;10.23;;;18.90;96.30;;;;;;6096375;23;20022;-71
2021/09/03 10:27:02;;;;;;;18.73;9.90;;;18.80;96.30;;;;;;6093521;23;20092;-70
2021/09/03 10:29:37;;;;;;;16.15;8.82;;;18.80;95.90;;;;;;6094974;23;20112;-71
2021/09/03 10:32:07;;;;;;;22.77;9.18;;;18.60;96.20;;;;;;6121684;23;20442;-71
2021/09/03 10:34:45;;;;;;;18.75;10.00;;;18.50;96.70;;;;;;6120333;23;20248;-70
2021/09/03 10:37:30;;;;;;;19.30;11.10;;;18.60;96.80;;;;;;6095876;23;20136;-71
2021/09/03 10:40:12;;;;;;;20.15;10.52;;;18.50;97.10;;;;;;6095894;23;20454;-72
2021/09/03 10:42:52;;;;;;;17.08;9.70;;;18.50;96.50;;;;;;6118553;23;20088;-71
2021/09/03 10:45:36;;;;;;;20.42;10.10;;;18.50;96.70;;;;;;6121138;23;20018;-71
2021/09/03 10:48:04;;;;;;;21.50;11.57;;;18.50;96.30;;;;;;6095949;23;20247;-71
2021/09/03 10:50:36;;;;;;;20.90;10.32;;;18.40;96.50;;;;;;6119655;23;20108;-72
2021/09/03 10:53:07;;;;;;;17.45;10.00;;;18.40;97.10;;;;;;6096133;23;20029;-71
2021/09/03 10:55:52;;;;;;;19.85;10.73;;;18.40;97.20;;;;;;6096520;23;20018;-72
2021/09/03 10:58:41;;;;;;;23.17;10.25;;;18.50;96.00;;;;;;6119300;23;20032;-71
2021/09/03 11:01:13;;;;;;;19.20;11.38;;;18.40;96.60;;;;;;6105553;23;20026;-72
2021/09/03 11:04:01;;;;;;;21.52;11.38;;;18.40;96.50;;;;;;6118728;23;20064;-72
2021/09/03 11:06:48;;;;;;;21.50;10.57;;;18.40;96.20;;;;;;6115316;23;20348;-71
2021/09/03 11:09:18;;;;;;;17.38;10.60;;;18.30;96.30;;;;;;6115922;23;20022;-71
2021/09/03 11:11:45;;;;;;;;;;;18.20;96.50;;;;;;6093165;23;20506;-71
2021/09/03 11:14:18;;;;;;;21.23;11.20;;;18.20;96.70;;;;;;6092543;23;19995;-72
2021/09/03 11:16:59;;;;;;;19.27;11.98;;;18.20;96.60;;;;;;6116247;23;20022;-72
2021/09/03 11:19:49;;;;;;;19.05;11.40;;;18.30;96.80;;;;;;6091090;23;20017;-71
2021/09/03 11:22:23;;;;;;;18.77;11.43;;;18.40;96.90;;;;;;6083401;23;20903;-72
2021/09/03 11:24:56;;;;;;;17.83;10.88;;;18.40;96.20;;;;;;6091700;23;20165;-72
2021/09/03 11:27:27;;;;;;;18.80;11.25;;;18.40;96.00;;;;;;6092538;23;20081;-72
2021/09/03 11:29:58;;;;;;;19.27;11.60;;;18.30;96.10;;;;;;6117262;23;20022;-71
2021/09/03 11:32:27;;;;;;;17.90;11.95;;;18.40;96.20;;;;;;6092622;23;20033;-71
2021/09/03 11:35:10;;;;;;;23.13;12.43;;;18.40;96.10;;;;;;6094874;23;20022;-71
2021/09/03 11:37:43;;;;;;;19.90;10.85;;;18.40;96.20;;;;;;6093320;23;20482;-72
2021/09/03 11:40:19;;;;;;;18.75;10.70;;;18.50;96.30;;;;;;6118479;23;20144;-71
2021/09/03 11:43:06;;;;;;;22.70;12.50;;;18.60;96.10;;;;;;6117227;23;20592;-72
2021/09/03 11:45:33;;;;;;;18.83;11.70;;;18.60;96.20;;;;;;6092113;23;20026;-71
2021/09/03 11:48:11;;;;;;;19.13;12.73;;;18.70;96.00;;;;;;6117752;23;20034;-71
2021/09/03 11:50:40;;;;;;;20.33;11.85;;;18.80;95.20;;;;;;6117942;23;20073;-72
2021/09/03 11:53:24;;;;;;;18.13;10.93;;;18.80;94.50;;;;;;6092345;23;20072;-71
2021/09/03 11:55:51;;;;;;;21.65;12.48;;;18.60;95.60;;;;;;6118750;23;20400;-71
2021/09/03 11:58:24;;;;;;;20.17;11.38;;;18.70;95.20;;;;;;6092340;23;20026;-70
2021/09/03 12:00:57;;;;;;;18.13;10.95;;;18.50;95.30;;;;;;6093415;23;20571;-71
2021/09/03 12:03:30;;;;;;;21.55;12.15;;;18.50;95.50;;;;;;6118718;23;20048;-71
2021/09/03 12:05:56;;;;;;;19.20;12.00;;;18.60;96.10;;;;;;6090475;23;20033;-72
2021/09/03 12:08:22;;;;;;;19.70;12.68;;;18.90;95.80;;;;;;6092268;23;20018;-71
2021/09/03 12:11:09;;;;;;;18.27;11.88;;;19.30;95.50;;;;;;6091953;23;20367;-72
2021/09/03 12:13:40;;;;;;;17.85;10.55;;;19.50;94.90;;;;;;6117617;23;20494;-71
2021/09/03 12:16:20;;;;;;;18.50;11.77;;;19.60;94.60;;;;;;6116917;23;20022;-71
2021/09/03 12:19:00;;;;;;;15.93;11.52;;;19.50;93.70;;;;;;6117747;23;20029;-72
2021/09/03 12:21:40;;;;;;;17.48;11.25;;;19.40;94.20;;;;;;6093173;23;20072;-73
2021/09/03 12:24:09;;;;;;;17.60;12.02;;;19.40;94.80;;;;;;6116085;23;20022;-72
2021/09/03 12:26:40;;;;;;;16.45;11.25;;;19.40;94.70;;;;;;6093850;23;20645;-72
2021/09/03 12:29:10;;;;;;;16.40;11.02;;;19.30;94.70;;;;;;6091674;23;20526;-72
2021/09/03 12:31:37;;;;;;;14.45;10.43;;;19.30;93.70;;;;;;6116641;23;20022;-72
2021/09/03 12:34:10;;;;;;;15.93;9.68;;;19.20;94.10;;;;;;6115624;23;20101;-72
2021/09/03 12:36:39;;;;;;;15.07;9.70;;;19.00;94.90;;;;;;6067769;23;20032;-72